Time;durP1;ratioP1;P1;durP2;ratioP2;P2;SDS_P1;SDS_P2;PMS_P1;PMS_P2;Temp;Humidity;BMP_temperature;BMP_pressure;BME280_temperature;BME280_humidity;BME280_pressure;Samples;Min_cycle;Max_cycle;Signal;HPM_P1;HPM_P2
2021/03/05 00:00:17;;;;;;;20.17;9.95;;;;;;;7.98;35.42;93826.44;5087403;28;20019;-68
2021/03/05 00:02:44;;;;;;;18.73;9.02;;;;;;;7.92;35.30;93830.25;5088540;28;20411;-69
2021/03/05 00:05:10;;;;;;;24.17;10.20;;;;;;;7.88;35.05;93830.06;5088846;28;20511;-68
2021/03/05 00:07:36;;;;;;;22.73;9.20;;;;;;;7.86;35.06;93826.91;5088800;28;20036;-69
2021/03/05 00:10:07;;;;;;;30.73;13.00;;;;;;;7.92;35.34;93830.25;5089050;28;20031;-68
2021/03/05 00:12:32;;;;;;;37.40;13.75;;;;;;;7.83;35.89;93827.50;5088918;28;20107;-68
2021/03/05 00:14:58;;;;;;;39.83;15.50;;;;;;;7.85;36.10;93828.00;5087427;28;20157;-69
2021/03/05 00:17:23;;;;;;;33.72;14.20;;;;;;;7.72;36.02;93820.84;5089007;28;20039;-68
2021/03/05 00:19:49;;;;;;;39.58;13.45;;;;;;;7.70;36.06;93821.13;5088701;28;20035;-68
2021/03/05 00:22:14;;;;;;;31.98;13.35;;;;;;;7.65;36.28;93821.22;5088968;28;20469;-68
2021/03/05 00:24:39;;;;;;;40.85;14.13;;;;;;;7.64;36.27;93819.66;5089609;28;20099;-68
2021/03/05 00:27:05;;;;;;;33.75;12.13;;;;;;;7.67;36.75;93824.34;5087970;28;20020;-68
2021/03/05 00:29:31;;;;;;;25.20;11.73;;;;;;;7.59;35.80;93820.53;5088361;28;20092;-68
2021/03/05 00:31:56;;;;;;;28.13;10.10;;;;;;;7.59;35.26;93822.38;5087838;28;20071;-68
2021/03/05 00:34:21;;;;;;;34.05;11.43;;;;;;;7.53;37.20;93818.25;5089852;28;20027;-69
2021/03/05 00:36:49;;;;;;;29.48;12.35;;;;;;;7.34;36.83;93816.47;5088902;28;20028;-68
2021/03/05 00:39:14;;;;;;;38.92;13.25;;;;;;;7.36;37.31;93818.84;5087038;28;20059;-68
2021/03/05 00:41:40;;;;;;;40.85;15.93;;;;;;;7.22;37.88;93822.28;5088817;28;20028;-68
2021/03/05 00:44:06;;;;;;;38.05;14.07;;;;;;;7.22;37.73;93809.03;5087645;28;20028;-68
2021/03/05 00:46:32;;;;;;;27.85;11.52;;;;;;;7.16;37.93;93802.22;5089420;28;20016;-68
2021/03/05 00:48:58;;;;;;;30.30;10.98;;;;;;;7.14;38.00;93800.94;5087870;28;20425;-68
2021/03/05 00:51:24;;;;;;;25.30;11.27;;;;;;;7.15;38.53;93807.84;5087958;28;20040;-68
2021/03/05 00:53:50;;;;;;;28.08;10.85;;;;;;;6.93;38.23;93793.34;5089921;28;20077;-68
2021/03/05 00:56:15;;;;;;;26.02;9.88;;;;;;;6.94;37.98;93797.59;5092935;28;20050;-68
2021/03/05 00:58:41;;;;;;;19.88;9.15;;;;;;;6.97;39.07;93806.81;5093178;28;20469;-68
2021/03/05 01:01:07;;;;;;;16.30;8.23;;;;;;;6.87;38.65;93806.97;5092905;28;20035;-68
2021/03/05 01:03:32;;;;;;;24.85;10.23;;;;;;;6.86;38.68;93803.56;5093221;28;20403;-68
2021/03/05 01:05:58;;;;;;;25.63;9.77;;;;;;;6.87;38.56;93805.13;5092666;28;20067;-68
2021/03/05 01:08:23;;;;;;;26.60;10.18;;;;;;;6.87;38.02;93794.50;5091547;28;20028;-68
2021/03/05 01:10:49;;;;;;;22.13;10.30;;;;;;;6.85;38.21;93794.03;5091381;28;20425;-68
2021/03/05 01:13:15;;;;;;;22.38;9.10;;;;;;;6.85;37.87;93806.50;5091477;28;20129;-67
2021/03/05 01:15:40;;;;;;;22.80;9.57;;;;;;;6.83;37.96;93806.78;5092740;28;20028;-68
2021/03/05 01:18:06;;;;;;;21.75;9.90;;;;;;;6.78;37.91;93804.22;5092753;28;20026;-68
2021/03/05 01:20:32;;;;;;;20.33;9.50;;;;;;;6.79;38.30;93795.19;5091208;28;20483;-68
2021/03/05 01:22:58;;;;;;;21.20;10.57;;;;;;;6.78;38.48;93797.06;5091243;28;20036;-68
2021/03/05 01:25:26;;;;;;;23.83;10.85;;;;;;;6.62;38.35;93785.13;5091039;28;20043;-68
2021/03/05 01:27:52;;;;;;;22.10;9.68;;;;;;;6.63;38.28;93795.44;5092610;28;20028;-68
2021/03/05 01:30:18;;;;;;;21.85;9.65;;;;;;;6.51;39.10;93787.13;5092168;28;20463;-68
2021/03/05 01:32:44;;;;;;;27.60;10.82;;;;;;;6.51;38.76;93792.44;5092453;28;20651;-68
2021/03/05 01:35:16;;;;;;;26.33;10.75;;;;;;;6.55;38.82;93805.88;5091919;28;20082;-68
2021/03/05 01:37:42;;;;;;;28.40;11.75;;;;;;;6.41;38.93;93779.34;5090779;28;20024;-68
2021/03/05 01:40:14;;;;;;;25.48;10.18;;;;;;;6.45;38.55;93785.66;5092322;28;20032;-68
2021/03/05 01:42:41;;;;;;;29.10;11.27;;;;;;;6.36;38.88;93777.56;5092114;28;20028;-68
2021/03/05 01:45:10;;;;;;;26.65;11.13;;;;;;;6.35;39.41;93785.81;5092287;28;20490;-68
2021/03/05 01:47:36;;;;;;;29.50;12.50;;;;;;;6.38;38.76;93786.03;5090682;28;20024;-68
2021/03/05 01:50:27;;;;;;;33.03;12.88;;;;;;;6.39;38.95;93787.59;5091339;28;20479;-68
2021/03/05 01:53:02;;;;;;;28.80;12.55;;;;;;;6.35;39.50;93794.56;5085376;28;20105;-68
2021/03/05 01:55:28;;;;;;;27.50;12.07;;;;;;;6.38;39.28;93793.97;5091940;28;20046;-68
2021/03/05 01:57:54;;;;;;;35.40;12.48;;;;;;;6.31;39.60;93790.09;5090421;28;20032;-68
2021/03/05 02:00:35;;;;;;;25.83;10.60;;;;;;;6.30;38.86;93791.19;5090604;28;20031;-68
2021/03/05 02:03:00;;;;;;;26.25;10.48;;;;;;;6.31;38.97;93793.56;5090490;28;20471;-68
2021/03/05 02:05:26;;;;;;;28.52;11.85;;;;;;;6.27;38.84;93783.81;5091065;28;20089;-68
2021/03/05 02:07:51;;;;;;;36.47;12.07;;;;;;;6.30;39.18;93791.19;5091837;28;20475;-68
2021/03/05 02:10:17;;;;;;;24.42;10.52;;;;;;;6.33;38.88;93801.19;5091219;28;20027;-68
2021/03/05 02:12:43;;;;;;;37.17;13.77;;;;;;;6.23;39.89;93783.63;5091301;28;20077;-68
2021/03/05 02:15:09;;;;;;;40.10;15.35;;;;;;;6.01;40.08;93784.19;5091329;28;20028;-68
2021/03/05 02:18:11;;;;;;;36.17;14.20;;;;;;;6.09;40.34;93788.06;5091227;28;20528;-67
2021/03/05 02:20:42;;;;;;;27.90;12.23;;;;;;;6.02;40.12;93796.31;5085059;28;20044;-68
2021/03/05 02:23:39;;;;;;;28.60;11.75;;;;;;;6.02;40.10;93785.75;5089475;28;20359;-67
2021/03/05 02:26:52;;;;;;;27.52;11.57;;;;;;;5.97;40.18;93786.59;5090604;28;20434;-67
2021/03/05 02:29:26;;;;;;;;;;;;;;;5.97;40.61;93793.75;5088736;28;20560;-68
2021/03/05 02:31:58;;;;;;;20.83;9.93;;;;;;;5.79;40.62;93796.06;5090916;28;19969;-67
2021/03/05 02:34:28;;;;;;;20.85;10.02;;;;;;;5.81;40.67;93799.22;5089439;28;20046;-68
2021/03/05 02:37:01;;;;;;;24.58;9.23;;;;;;;5.83;41.12;93802.34;5090816;28;20028;-68
2021/03/05 02:39:49;;;;;;;20.23;10.18;;;;;;;5.87;41.05;93807.09;5090859;28;20027;-68
2021/03/05 02:42:24;;;;;;;25.23;8.98;;;;;;;5.78;41.11;93796.34;5091062;28;20054;-68
2021/03/05 02:45:04;;;;;;;25.40;9.63;;;;;;;5.78;41.25;93814.84;5089453;28;20089;-68
2021/03/05 02:47:31;;;;;;;22.17;9.45;;;;;;;5.69;41.08;93813.91;5090621;28;20479;-68
2021/03/05 02:49:57;;;;;;;22.85;9.52;;;;;;;5.61;41.34;93812.69;5090775;28;20101;-68
2021/03/05 02:52:25;;;;;;;25.10;9.20;;;;;;;5.59;41.64;93810.31;5090862;28;20034;-68
2021/03/05 02:54:54;;;;;;;21.40;9.13;;;;;;;5.58;41.52;93806.13;5090604;28;20093;-69
2021/03/05 02:57:24;;;;;;;20.77;8.00;;;;;;;5.59;41.89;93802.38;5090648;28;20028;-69
2021/03/05 02:59:51;;;;;;;22.35;8.65;;;;;;;5.53;41.88;93806.16;5090281;28;20024;-69
2021/03/05 03:02:23;;;;;;;21.33;8.48;;;;;;;5.58;41.54;93805.31;5090722;28;20108;-69
2021/03/05 03:04:49;;;;;;;19.00;7.97;;;;;;;5.55;41.64;93797.94;5090684;28;20040;-69
2021/03/05 03:07:15;;;;;;;24.23;8.43;;;;;;;5.53;41.50;93805.38;5089380;28;20028;-69
2021/03/05 03:09:42;;;;;;;21.00;7.88;;;;;;;5.55;41.63;93796.09;5089133;28;20476;-69
2021/03/05 03:12:09;;;;;;;24.98;8.38;;;;;;;5.57;41.91;93803.75;5089186;28;20028;-69
2021/03/05 03:14:39;;;;;;;19.50;8.30;;;;;;;5.61;41.46;93804.75;5089116;28;20524;-69
2021/03/05 03:17:06;;;;;;;23.20;8.48;;;;;;;5.62;41.59;93808.97;5088121;28;20111;-69
2021/03/05 03:19:33;;;;;;;16.42;7.45;;;;;;;5.66;41.47;93807.34;5089083;28;20050;-69
2021/03/05 03:22:02;;;;;;;21.23;8.15;;;;;;;5.67;41.63;93811.56;5088862;28;20043;-69
2021/03/05 03:24:28;;;;;;;23.08;8.50;;;;;;;5.67;41.57;93824.00;5090326;28;20023;-69
2021/03/05 03:26:53;;;;;;;14.65;7.38;;;;;;;5.65;41.58;93816.34;5090193;28;20031;-69
2021/03/05 03:29:19;;;;;;;19.13;7.68;;;;;;;5.71;41.45;93831.06;5090215;28;20020;-69
2021/03/05 03:31:45;;;;;;;21.00;8.43;;;;;;;5.60;41.44;93813.78;5088707;28;20028;-70
2021/03/05 03:34:12;;;;;;;19.10;7.25;;;;;;;5.52;41.55;93807.25;5090306;28;20031;-69
2021/03/05 03:36:39;;;;;;;18.05;8.02;;;;;;;5.52;41.74;93817.03;5090267;28;20036;-69
2021/03/05 03:39:07;;;;;;;20.98;8.30;;;;;;;5.52;41.39;93819.69;5089182;28;20040;-68
2021/03/05 03:41:34;;;;;;;20.77;8.13;;;;;;;5.57;41.65;93824.88;5086264;28;20415;-69
2021/03/05 03:44:00;;;;;;;15.82;7.60;;;;;;;5.51;41.73;93813.59;5089840;28;20046;-69
2021/03/05 03:46:26;;;;;;;21.40;8.50;;;;;;;5.54;41.58;93817.53;5089160;28;20028;-69
2021/03/05 03:48:57;;;;;;;25.25;7.70;;;;;;;5.55;41.75;93816.47;5088808;28;20031;-69
2021/03/05 03:51:26;;;;;;;17.80;8.13;;;;;;;5.35;42.37;93812.97;5088671;28;20032;-69
2021/03/05 03:53:54;;;;;;;18.27;7.60;;;;;;;5.38;42.62;93815.06;5088301;28;20028;-70
2021/03/05 03:56:21;;;;;;;17.17;6.95;;;;;;;5.34;42.17;93810.63;5089330;28;20024;-69
2021/03/05 03:58:51;;;;;;;22.88;7.82;;;;;;;5.35;42.15;93818.28;5089346;28;20023;-69
2021/03/05 04:01:18;;;;;;;22.05;8.95;;;;;;;5.31;42.61;93811.97;5088294;28;20107;-69
2021/03/05 04:03:48;;;;;;;27.20;8.80;;;;;;;5.34;42.65;93814.03;5088498;28;20028;-70
2021/03/05 04:06:18;;;;;;;26.17;9.05;;;;;;;5.36;43.20;93822.47;5088228;28;20040;-69
2021/03/05 04:08:44;;;;;;;24.88;9.93;;;;;;;5.39;42.72;93814.00;5088583;28;20069;-69
2021/03/05 04:11:10;;;;;;;23.52;9.20;;;;;;;5.43;42.63;93830.06;5089660;28;20491;-69
2021/03/05 04:13:37;;;;;;;33.85;9.50;;;;;;;5.39;42.79;93824.56;5089459;28;20036;-69
2021/03/05 04:16:03;;;;;;;25.42;10.27;;;;;;;5.43;42.98;93822.94;5089505;28;20056;-69
2021/03/05 04:18:36;;;;;;;27.00;9.95;;;;;;;5.48;42.90;93834.53;5088168;28;20067;-69
2021/03/05 04:21:15;;;;;;;24.05;10.40;;;;;;;5.49;43.43;93828.94;5088095;28;20052;-69
2021/03/05 04:23:41;;;;;;;26.95;8.73;;;;;;;5.52;43.01;93833.69;5089583;28;20027;-69
2021/03/05 04:26:06;;;;;;;23.05;9.68;;;;;;;5.51;42.90;93831.31;5089441;28;20035;-69
2021/03/05 04:28:31;;;;;;;28.27;9.80;;;;;;;5.55;42.97;93827.03;5091153;28;20036;-69
2021/03/05 04:30:57;;;;;;;25.50;9.95;;;;;;;5.53;43.04;93823.88;5092267;28;20115;-69
2021/03/05 04:33:22;;;;;;;26.40;10.38;;;;;;;5.54;43.00;93828.91;5093372;28;20473;-69
2021/03/05 04:35:48;;;;;;;29.58;11.25;;;;;;;5.53;43.16;93835.25;5093604;28;20078;-69
2021/03/05 04:38:14;;;;;;;24.05;10.55;;;;;;;5.53;43.16;93834.47;5093427;28;20399;-68
2021/03/05 04:40:39;;;;;;;24.38;10.85;;;;;;;5.49;43.14;93844.81;5091993;28;20020;-69
2021/03/05 04:43:05;;;;;;;28.83;10.65;;;;;;;5.53;42.90;93840.53;5093447;28;20036;-68
2021/03/05 04:45:30;;;;;;;36.70;12.13;;;;;;;5.55;42.99;93833.09;5093091;28;20036;-69
2021/03/05 04:47:55;;;;;;;36.60;14.35;;;;;;;5.53;43.39;93829.16;5093301;28;20111;-69
2021/03/05 04:50:21;;;;;;;27.58;11.63;;;;;;;5.56;43.15;93833.91;5092024;28;20024;-69
2021/03/05 04:52:46;;;;;;;33.80;11.63;;;;;;;5.59;43.20;93833.34;5093082;28;20024;-68
2021/03/05 04:55:12;;;;;;;40.65;13.13;;;;;;;5.57;43.64;93832.81;5091332;28;20028;-69
2021/03/05 04:57:37;;;;;;;31.65;12.48;;;;;;;5.57;43.27;93825.69;5093150;28;20100;-68
2021/03/05 05:00:04;;;;;;;21.10;11.02;;;;;;;5.46;43.67;93834.81;5093059;28;20064;-68
2021/03/05 05:02:30;;;;;;;31.55;10.48;;;;;;;5.52;43.74;93838.19;5093008;28;20107;-68
2021/03/05 05:04:55;;;;;;;23.70;10.05;;;;;;;5.44;43.64;93831.66;5091394;28;20132;-68
2021/03/05 05:07:20;;;;;;;33.47;14.90;;;;;;;5.46;43.62;93844.59;5092995;28;20103;-68
2021/03/05 05:09:46;;;;;;;34.28;12.43;;;;;;;5.49;44.00;93830.81;5092873;28;20028;-68
2021/03/05 05:12:11;;;;;;;21.05;8.75;;;;;;;5.40;44.08;93834.06;5091592;28;20042;-68
2021/03/05 05:14:37;;;;;;;25.38;9.45;;;;;;;5.44;44.18;93836.94;5092577;28;20107;-69
2021/03/05 05:17:03;;;;;;;31.67;10.77;;;;;;;5.48;44.28;93842.47;5092695;28;20103;-68
2021/03/05 05:19:28;;;;;;;29.23;9.77;;;;;;;5.49;44.08;93836.09;5092596;28;20523;-69
2021/03/05 05:21:54;;;;;;;29.45;11.13;;;;;;;5.50;43.86;93827.09;5092691;28;20066;-69
2021/03/05 05:24:19;;;;;;;41.95;12.95;;;;;;;5.54;43.74;93841.34;5090813;28;20475;-69
2021/03/05 05:26:45;;;;;;;37.75;12.90;;;;;;;5.53;44.08;93855.59;5090843;28;20023;-69
2021/03/05 05:29:10;;;;;;;33.70;13.40;;;;;;;5.54;43.74;93851.91;5090569;28;20156;-68
2021/03/05 05:31:35;;;;;;;33.35;11.63;;;;;;;5.57;43.83;93857.41;5092221;28;20023;-69
2021/03/05 05:34:01;;;;;;;30.73;12.75;;;;;;;5.58;44.20;93851.06;5091179;28;20032;-69
2021/03/05 05:36:26;;;;;;;31.80;12.20;;;;;;;5.54;43.83;93850.03;5092092;28;20028;-70
2021/03/05 05:38:52;;;;;;;39.88;11.30;;;;;;;5.61;43.56;93849.69;5090904;28;20031;-69
2021/03/05 05:41:22;;;;;;;28.70;11.00;;;;;;;5.66;43.50;93860.22;5091372;28;20728;-70
2021/03/05 05:43:48;;;;;;;33.03;11.10;;;;;;;5.72;43.17;93861.75;5091934;28;20024;-70
2021/03/05 05:46:17;;;;;;;28.00;11.60;;;;;;;5.76;42.79;93860.13;5092132;28;20108;-70
2021/03/05 05:48:46;;;;;;;25.02;10.38;;;;;;;5.82;41.55;93864.28;5090625;28;20073;-70
2021/03/05 05:51:21;;;;;;;34.45;11.70;;;;;;;5.92;41.21;93865.22;5092115;28;20023;-70
2021/03/05 05:53:47;;;;;;;35.83;11.85;;;;;;;5.98;41.52;93872.03;5092102;28;20386;-70
2021/03/05 05:56:22;;;;;;;37.00;12.77;;;;;;;6.05;41.35;93872.50;5091927;28;20024;-70
2021/03/05 05:58:48;;;;;;;38.50;11.57;;;;;;;6.16;41.71;93873.16;5091719;28;20028;-70
2021/03/05 06:01:13;;;;;;;31.27;11.63;;;;;;;6.22;41.25;93870.16;5091919;28;20097;-70
2021/03/05 06:03:40;;;;;;;38.85;14.85;;;;;;;6.26;41.41;93874.88;5091789;28;20069;-70
2021/03/05 06:06:06;;;;;;;42.03;13.40;;;;;;;6.30;41.53;93879.31;5091604;28;20046;-70
2021/03/05 06:08:32;;;;;;;50.70;14.35;;;;;;;6.41;41.24;93869.38;5091819;28;20051;-70
2021/03/05 06:10:57;;;;;;;50.67;11.88;;;;;;;6.46;41.68;93866.66;5091570;28;20479;-70
2021/03/05 06:13:27;;;;;;;47.70;12.52;;;;;;;6.47;41.61;93873.50;5090396;28;20479;-70
2021/03/05 06:16:17;;;;;;;35.20;12.23;;;;;;;6.48;41.72;93869.03;5091385;28;20028;-70
2021/03/05 06:18:44;;;;;;;31.75;11.57;;;;;;;6.43;41.37;93885.75;5091272;28;20028;-70
2021/03/05 06:21:13;;;;;;;35.50;10.95;;;;;;;6.41;41.21;93874.66;5091427;28;20016;-70
2021/03/05 06:23:59;;;;;;;28.95;9.60;;;;;;;6.49;40.82;93879.31;5091261;28;20036;-70
2021/03/05 06:26:25;;;;;;;32.50;9.85;;;;;;;6.53;40.73;93875.03;5087514;28;20024;-70
2021/03/05 06:29:07;;;;;;;31.50;11.30;;;;;;;6.61;40.52;93879.69;5091154;28;20384;-70
2021/03/05 06:31:34;;;;;;;28.02;9.38;;;;;;;6.69;40.46;93885.41;5089992;28;20019;-70
2021/03/05 06:34:04;;;;;;;27.75;11.65;;;;;;;6.79;40.23;93879.94;5089888;28;20027;-69
2021/03/05 06:36:30;;;;;;;49.58;11.40;;;;;;;6.88;40.03;93888.84;5091125;28;20465;-70
2021/03/05 06:38:56;;;;;;;39.08;10.60;;;;;;;6.98;39.56;93877.28;5091088;28;20415;-70
2021/03/05 06:41:24;;;;;;;19.95;8.82;;;;;;;7.10;39.48;93874.16;5091121;28;20022;-70
2021/03/05 06:43:52;;;;;;;38.50;9.43;;;;;;;7.18;39.13;93878.81;5091149;28;20020;-70
2021/03/05 06:46:35;;;;;;;26.58;9.02;;;;;;;7.31;38.69;93875.41;5090879;28;20054;-70
2021/03/05 06:49:12;;;;;;;26.67;8.45;;;;;;;7.42;38.42;93879.44;5089444;28;20024;-70
2021/03/05 06:51:41;;;;;;;26.67;8.65;;;;;;;7.53;38.30;93876.59;5089528;28;20058;-69
2021/03/05 06:54:08;;;;;;;21.85;8.63;;;;;;;7.63;38.03;93882.53;5089241;28;20039;-69
2021/03/05 06:56:36;;;;;;;28.33;8.57;;;;;;;7.74;37.69;93875.16;5089105;28;20038;-69
2021/03/05 06:59:04;;;;;;;29.58;8.23;;;;;;;7.88;37.70;93869.88;5090761;28;20390;-69
2021/03/05 07:01:31;;;;;;;26.33;9.05;;;;;;;7.96;37.36;93879.00;5090461;28;20390;-69
2021/03/05 07:04:10;;;;;;;29.65;9.00;;;;;;;8.04;37.28;93876.44;5090514;28;20035;-69
2021/03/05 07:06:36;;;;;;;24.17;8.82;;;;;;;8.12;37.35;93872.31;5090320;28;20478;-69
2021/03/05 07:09:05;;;;;;;32.83;8.35;;;;;;;8.22;37.29;93871.31;5090696;28;20032;-70
2021/03/05 07:11:32;;;;;;;37.92;9.30;;;;;;;8.28;37.29;93875.41;5090319;28;20028;-70
2021/03/05 07:13:57;;;;;;;23.55;8.85;;;;;;;8.35;37.00;93880.34;5089389;28;20034;-69
2021/03/05 07:16:23;;;;;;;26.20;8.80;;;;;;;8.43;36.85;93875.13;5090285;28;20407;-69
2021/03/05 07:18:49;;;;;;;19.70;8.98;;;;;;;8.51;36.62;93878.97;5090415;28;20580;-70
2021/03/05 07:21:17;;;;;;;19.65;8.32;;;;;;;8.55;36.29;93877.28;5088955;28;20838;-69
2021/03/05 07:23:45;;;;;;;15.77;7.55;;;;;;;8.62;36.19;93872.31;5088627;28;20027;-69
2021/03/05 07:26:11;;;;;;;23.70;9.43;;;;;;;8.68;36.29;93872.22;5090417;28;20098;-68
2021/03/05 07:28:41;;;;;;;23.38;9.35;;;;;;;8.73;36.09;93872.09;5088624;28;20539;-69
2021/03/05 07:31:08;;;;;;;28.80;9.85;;;;;;;8.77;35.99;93871.22;5090207;28;20066;-68
2021/03/05 07:33:39;;;;;;;33.28;10.38;;;;;;;8.79;36.25;93865.59;5088384;28;20469;-68
2021/03/05 07:36:09;;;;;;;27.08;10.27;;;;;;;8.80;36.25;93869.81;5086787;28;20130;-67
2021/03/05 07:38:39;;;;;;;35.20;10.02;;;;;;;8.80;35.98;93875.13;5089291;28;20114;-68
2021/03/05 07:41:09;;;;;;;26.48;9.15;;;;;;;8.90;35.28;93874.13;5088646;28;20027;-67
2021/03/05 07:43:34;;;;;;;25.15;9.75;;;;;;;8.95;34.94;93866.78;5089713;28;20118;-69
2021/03/05 07:46:00;;;;;;;27.10;9.98;;;;;;;9.03;34.81;93867.94;5088624;28;20079;-69
2021/03/05 07:48:26;;;;;;;24.15;8.85;;;;;;;9.13;35.05;93861.59;5089343;28;20065;-68
2021/03/05 07:50:58;;;;;;;26.15;9.23;;;;;;;9.24;35.27;93862.94;5120740;27;20028;-68
2021/03/05 07:53:23;;;;;;;36.72;10.05;;;;;;;9.36;34.93;93868.47;5088817;28;20077;-69
2021/03/05 07:55:49;;;;;;;32.90;10.15;;;;;;;9.48;34.06;93872.44;5088212;28;20036;-68
2021/03/05 07:58:43;;;;;;;25.98;9.23;;;;;;;9.60;33.47;93867.34;5089814;28;20094;-68
2021/03/05 08:01:09;;;;;;;36.28;9.82;;;;;;;9.67;32.99;93859.72;5087673;28;20072;-68
2021/03/05 08:03:54;;;;;;;25.15;9.82;;;;;;;9.67;32.24;93865.03;5089014;28;20385;-68
2021/03/05 08:06:30;;;;;;;33.30;12.23;;;;;;;9.71;32.66;93857.19;5087915;28;20726;-68
2021/03/05 08:09:08;;;;;;;29.77;9.82;;;;;;;9.78;32.37;93854.88;5089129;28;20103;-68
2021/03/05 08:11:39;;;;;;;24.75;8.80;;;;;;;9.80;32.13;93853.47;5089497;28;20035;-68
2021/03/05 08:14:20;;;;;;;21.92;9.43;;;;;;;9.88;31.70;93851.19;5087578;28;20071;-69
2021/03/05 08:16:46;;;;;;;24.98;10.25;;;;;;;9.94;32.36;93847.28;5087765;28;20024;-69
2021/03/05 08:19:18;;;;;;;31.85;10.18;;;;;;;9.85;32.76;93844.59;5087654;28;20028;-69
2021/03/05 08:24:29;;;;;;;32.40;10.70;;;;;;;10.04;32.87;93841.66;5089153;28;20028;-68
2021/03/05 08:27:15;;;;;;;33.60;12.18;;;;;;;10.18;31.38;93847.66;5089060;28;20048;-69
2021/03/05 08:29:52;;;;;;;22.65;10.98;;;;;;;10.27;30.99;93833.56;5088987;28;20024;-69
2021/03/05 08:32:32;;;;;;;29.60;11.40;;;;;;;10.38;30.15;93830.31;5089198;28;20451;-69
2021/03/05 08:35:31;;;;;;;33.13;12.10;;;;;;;10.53;30.42;93838.97;5088875;28;20027;-69
2021/03/05 08:38:09;;;;;;;27.35;10.30;;;;;;;10.64;29.46;93829.53;5083325;28;20469;-68
2021/03/05 08:40:35;;;;;;;29.98;10.85;;;;;;;10.76;29.47;93823.59;5088921;28;20107;-68
2021/03/05 08:43:09;;;;;;;24.30;9.80;;;;;;;10.93;29.23;93822.78;5089197;28;20060;-67
2021/03/05 08:45:50;;;;;;;25.58;9.68;;;;;;;10.98;28.34;93819.97;5087540;28;20118;-68
2021/03/05 08:48:40;;;;;;;18.77;7.82;;;;;;;11.13;27.38;93811.44;5089154;28;20024;-68
2021/03/05 08:51:05;;;;;;;25.77;9.18;;;;;;;11.33;26.77;93818.00;5089081;28;20028;-69
2021/03/05 08:53:37;;;;;;;22.33;8.35;;;;;;;11.47;26.88;93819.69;5087322;28;20473;-67
2021/03/05 08:56:02;;;;;;;26.65;8.65;;;;;;;11.61;26.19;93809.59;5087389;28;20032;-69
2021/03/05 08:58:28;;;;;;;29.92;9.10;;;;;;;11.70;25.64;93813.00;5087593;28;20399;-69
2021/03/05 09:00:53;;;;;;;32.80;11.75;;;;;;;11.63;27.25;93804.72;5088451;28;20024;-67
2021/03/05 09:03:19;;;;;;;35.13;11.40;;;;;;;11.73;27.86;93809.72;5088930;28;20246;-67
2021/03/05 09:05:47;;;;;;;30.33;11.13;;;;;;;11.88;27.17;93811.03;5087971;28;20040;-68
2021/03/05 09:08:13;;;;;;;32.25;12.85;;;;;;;12.01;27.62;93817.31;5087912;28;20028;-70
2021/03/05 09:10:45;;;;;;;38.20;13.90;;;;;;;12.14;27.19;93807.50;5088187;28;20446;-68
2021/03/05 09:13:12;;;;;;;29.27;12.27;;;;;;;12.24;26.85;93799.88;5086531;28;20020;-68
2021/03/05 09:15:49;;;;;;;33.17;12.88;;;;;;;12.34;26.65;93801.38;5089614;28;20020;-69
2021/03/05 09:18:18;;;;;;;34.10;11.55;;;;;;;12.44;25.90;93795.66;5090146;28;20024;-68
2021/03/05 09:20:56;;;;;;;31.48;11.95;;;;;;;12.48;25.28;93793.13;5090463;28;20044;-68
2021/03/05 09:23:40;;;;;;;33.95;13.05;;;;;;;12.58;25.69;93787.38;5088999;28;20085;-68
2021/03/05 09:26:14;;;;;;;35.65;11.95;;;;;;;12.61;25.41;93781.34;5091052;28;20566;-68
2021/03/05 09:28:41;;;;;;;35.47;11.57;;;;;;;12.62;24.97;93776.81;5091007;28;20031;-68
2021/03/05 09:31:08;;;;;;;32.63;12.02;;;;;;;12.63;25.11;93779.13;5091798;28;20020;-70
2021/03/05 09:33:38;;;;;;;40.05;12.75;;;;;;;12.71;25.30;93782.84;5090487;28;20480;-69
2021/03/05 09:36:04;;;;;;;32.38;11.18;;;;;;;12.76;25.35;93780.00;5091140;28;20398;-69
2021/03/05 09:38:30;;;;;;;32.92;10.38;;;;;;;12.89;23.87;93780.81;5090578;28;20030;-69
2021/03/05 09:41:18;;;;;;;28.65;10.32;;;;;;;12.92;23.67;93780.16;5088094;28;20265;-69
2021/03/05 09:43:46;;;;;;;28.30;10.10;;;;;;;12.90;24.57;93769.00;5089746;28;20475;-68
2021/03/05 09:46:21;;;;;;;23.27;9.57;;;;;;;13.05;24.47;93779.09;5087980;28;20411;-69
2021/03/05 09:48:47;;;;;;;29.23;9.30;;;;;;;13.17;22.91;93774.91;5089858;28;20032;-68
2021/03/05 09:51:13;;;;;;;31.30;10.60;;;;;;;13.28;23.54;93764.53;5090051;28;20024;-69
2021/03/05 09:53:50;;;;;;;32.67;10.50;;;;;;;13.38;24.29;93766.81;5088915;28;20475;-69
2021/03/05 09:56:16;;;;;;;28.38;12.48;;;;;;;13.52;24.79;93769.97;5090835;28;20415;-69
2021/03/05 09:58:54;;;;;;;31.80;12.55;;;;;;;13.64;24.93;93766.50;5090715;28;20039;-69
2021/03/05 10:01:20;;;;;;;28.52;11.18;;;;;;;13.50;24.37;93755.34;5092174;28;20080;-69
2021/03/05 10:04:12;;;;;;;42.50;11.88;;;;;;;13.68;24.44;93750.53;5086883;28;20032;-69
2021/03/05 10:06:38;;;;;;;28.75;12.25;;;;;;;13.81;24.52;93755.56;5089664;28;20097;-69
2021/03/05 10:09:12;;;;;;;31.42;12.18;;;;;;;13.97;23.93;93747.63;5091634;28;20104;-70
2021/03/05 10:11:44;;;;;;;23.08;10.75;;;;;;;14.11;23.87;93754.56;5091703;28;20055;-70
2021/03/05 10:14:10;;;;;;;35.67;11.20;;;;;;;14.23;23.36;93743.81;5091607;28;20081;-70
2021/03/05 10:16:41;;;;;;;29.38;10.10;;;;;;;14.35;22.54;93746.47;5091678;28;20482;-70
2021/03/05 10:19:09;;;;;;;22.98;9.15;;;;;;;14.42;21.54;93745.88;5090449;28;20407;-70
2021/03/05 10:21:39;;;;;;;18.50;6.55;;;;;;;14.39;19.61;93735.81;5090231;28;20415;-70
2021/03/05 10:24:07;;;;;;;12.90;6.57;;;;;;;14.54;19.99;93732.44;5090044;28;20406;-70
2021/03/05 10:26:32;;;;;;;18.38;7.95;;;;;;;14.70;20.26;93734.44;5090899;28;20020;-70
2021/03/05 10:29:00;;;;;;;16.75;6.78;;;;;;;14.85;19.33;93725.63;5089945;28;20535;-70
2021/03/05 10:31:49;;;;;;;18.73;6.47;;;;;;;14.88;18.68;93716.91;5090037;28;20028;-70
2021/03/05 10:34:25;;;;;;;23.55;6.57;;;;;;;14.99;18.90;93712.56;5091328;28;20028;-71
2021/03/05 10:36:52;;;;;;;15.18;5.97;;;;;;;15.12;18.25;93710.63;5091175;28;20035;-71
2021/03/05 10:39:18;;;;;;;10.65;5.45;;;;;;;15.11;18.25;93706.38;5091300;28;20083;-70
2021/03/05 10:41:51;;;;;;;11.65;3.33;;;;;;;15.22;14.34;93709.31;5091136;28;20395;-70
2021/03/05 10:44:16;;;;;;;;;;;;;;;15.20;13.90;93703.50;5091525;28;20028;-70
2021/03/05 10:46:41;;;;;;;11.57;2.33;;;;;;;15.23;13.26;93697.47;5091131;28;19992;-71
2021/03/05 10:49:07;;;;;;;10.15;2.70;;;;;;;15.32;13.99;93695.38;5089773;28;20487;-71
2021/03/05 10:51:32;;;;;;;4.75;2.38;;;;;;;15.42;12.47;93689.47;5090628;28;20479;-68
2021/03/05 10:53:57;;;;;;;4.75;2.20;;;;;;;15.43;11.66;93683.00;5089319;28;20122;-69
2021/03/05 10:56:23;;;;;;;10.68;2.92;;;;;;;15.37;12.57;93670.97;5089735;28;20024;-69
2021/03/05 10:58:48;;;;;;;8.38;2.33;;;;;;;15.41;13.43;93668.38;5090783;28;20058;-69
2021/03/05 11:01:14;;;;;;;5.90;2.50;;;;;;;15.43;13.27;93669.56;5090835;28;20024;-69
2021/03/05 11:03:39;;;;;;;16.58;2.80;;;;;;;15.52;13.69;93671.28;5089612;28;20074;-69
2021/03/05 11:06:05;;;;;;;7.93;3.13;;;;;;;15.69;14.30;93660.16;5090357;28;20384;-69
2021/03/05 11:08:32;;;;;;;10.00;3.38;;;;;;;15.77;13.69;93655.75;5090503;28;20431;-68
2021/03/05 11:10:57;;;;;;;12.65;4.05;;;;;;;15.88;14.89;93650.63;5090595;28;20039;-69
2021/03/05 11:13:23;;;;;;;10.88;3.92;;;;;;;15.98;15.29;93640.09;5090567;28;20467;-69
2021/03/05 11:15:48;;;;;;;8.40;4.22;;;;;;;15.99;13.51;93640.88;5089129;28;20028;-69
2021/03/05 11:18:14;;;;;;;10.27;3.63;;;;;;;15.70;14.17;93639.47;5089342;28;20043;-69
2021/03/05 11:20:39;;;;;;;12.93;4.20;;;;;;;15.81;14.92;93641.28;5089309;28;20092;-69
2021/03/05 11:23:04;;;;;;;11.98;3.67;;;;;;;15.87;13.12;93641.00;5090573;28;20028;-69
2021/03/05 11:25:30;;;;;;;10.20;3.78;;;;;;;15.86;14.47;93640.22;5089044;28;20031;-69
2021/03/05 11:27:55;;;;;;;10.35;3.58;;;;;;;16.00;13.21;93631.69;5090505;28;20104;-69
2021/03/05 11:30:21;;;;;;;7.72;2.72;;;;;;;16.14;12.81;93640.06;5090719;28;20414;-69
2021/03/05 11:32:47;;;;;;;6.13;2.55;;;;;;;16.25;13.30;93635.66;5088616;28;20089;-69
2021/03/05 11:35:14;;;;;;;8.05;2.13;;;;;;;16.40;11.20;93628.63;5089715;28;20028;-69
2021/03/05 11:37:40;;;;;;;5.75;1.65;;;;;;;16.49;10.07;93628.44;5088857;28;20024;-69